sensor_id;sensor_type;location;lat;lon;timestamp;pressure;altitude;pressure_sealevel;temperature;humidity
4415;BME280;2220;42.670;23.398;2024-02-23T00:00:50;94632.81;;;7.65;100.00
4415;BME280;2220;42.670;23.398;2024-02-23T00:03:15;94621.38;;;7.44;100.00
4415;BME280;2220;42.670;23.398;2024-02-23T00:05:41;94624.91;;;7.21;100.00
4415;BME280;2220;42.670;23.398;2024-02-23T00:08:07;94638.84;;;7.32;100.00
4415;BME280;2220;42.670;23.398;2024-02-23T00:10:32;94631.50;;;7.29;100.00
4415;BME280;2220;42.670;23.398;2024-02-23T00:12:58;94623.16;;;7.22;100.00
4415;BME280;2220;42.670;23.398;2024-02-23T00:15:23;94624.75;;;7.28;100.00
4415;BME280;2220;42.670;23.398;2024-02-23T00:17:50;94631.75;;;7.27;100.00
4415;BME280;2220;42.670;23.398;2024-02-23T00:20:15;94638.44;;;7.23;100.00
4415;BME280;2220;42.670;23.398;2024-02-23T00:22:41;94641.50;;;7.04;100.00
4415;BME280;2220;42.670;23.398;2024-02-23T00:25:06;94633.66;;;6.98;100.00
4415;BME280;2220;42.670;23.398;2024-02-23T00:27:34;94628.78;;;6.85;100.00
4415;BME280;2220;42.670;23.398;2024-02-23T00:30:00;94616.31;;;6.82;100.00
4415;BME280;2220;42.670;23.398;2024-02-23T00:32:25;94615.91;;;6.73;100.00
4415;BME280;2220;42.670;23.398;2024-02-23T00:34:50;94606.25;;;6.69;100.00
4415;BME280;2220;42.670;23.398;2024-02-23T00:37:16;94596.94;;;6.85;100.00
4415;BME280;2220;42.670;23.398;2024-02-23T00:39:41;94609.78;;;6.96;100.00
4415;BME280;2220;42.670;23.398;2024-02-23T00:42:07;94606.66;;;6.94;100.00
4415;BME280;2220;42.670;23.398;2024-02-23T00:44:32;94604.16;;;6.99;100.00
4415;BME280;2220;42.670;23.398;2024-02-23T00:46:58;94609.72;;;7.08;100.00
4415;BME280;2220;42.670;23.398;2024-02-23T00:49:26;94608.84;;;7.19;100.00
4415;BME280;2220;42.670;23.398;2024-02-23T00:51:52;94594.72;;;7.10;100.00
4415;BME280;2220;42.670;23.398;2024-02-23T00:54:17;94590.09;;;7.12;100.00
4415;BME280;2220;42.670;23.398;2024-02-23T00:56:43;94594.25;;;7.13;100.00
4415;BME280;2220;42.670;23.398;2024-02-23T00:59:08;94595.25;;;7.29;100.00
4415;BME280;2220;42.670;23.398;2024-02-23T01:01:33;94598.03;;;7.44;100.00
4415;BME280;2220;42.670;23.398;2024-02-23T01:03:59;94584.53;;;7.04;100.00
4415;BME280;2220;42.670;23.398;2024-02-23T01:06:24;94586.16;;;7.26;100.00
4415;BME280;2220;42.670;23.398;2024-02-23T01:08:50;94598.44;;;7.36;100.00
4415;BME280;2220;42.670;23.398;2024-02-23T01:11:16;94599.56;;;7.40;100.00
4415;BME280;2220;42.670;23.398;2024-02-23T01:13:41;94592.03;;;7.39;100.00
4415;BME280;2220;42.670;23.398;2024-02-23T01:16:06;94590.66;;;7.14;100.00
4415;BME280;2220;42.670;23.398;2024-02-23T01:18:33;94590.59;;;7.48;100.00
4415;BME280;2220;42.670;23.398;2024-02-23T01:20:59;94589.31;;;7.50;100.00
4415;BME280;2220;42.670;23.398;2024-02-23T01:23:24;94586.00;;;7.33;100.00
4415;BME280;2220;42.670;23.398;2024-02-23T01:25:49;94588.06;;;7.53;100.00
4415;BME280;2220;42.670;23.398;2024-02-23T01:28:15;94582.00;;;7.25;100.00
4415;BME280;2220;42.670;23.398;2024-02-23T01:30:40;94580.91;;;6.88;100.00
4415;BME280;2220;42.670;23.398;2024-02-23T01:33:06;94585.44;;;7.31;100.00
4415;BME280;2220;42.670;23.398;2024-02-23T01:35:31;94592.09;;;7.44;100.00
4415;BME280;2220;42.670;23.398;2024-02-23T01:37:56;94579.66;;;7.46;100.00
4415;BME280;2220;42.670;23.398;2024-02-23T01:40:22;94565.88;;;7.40;100.00
4415;BME280;2220;42.670;23.398;2024-02-23T01:42:47;94569.28;;;7.24;100.00
4415;BME280;2220;42.670;23.398;2024-02-23T01:45:13;94569.28;;;7.46;100.00
4415;BME280;2220;42.670;23.398;2024-02-23T01:47:38;94560.63;;;7.35;100.00
4415;BME280;2220;42.670;23.398;2024-02-23T01:50:04;94556.81;;;7.43;100.00
4415;BME280;2220;42.670;23.398;2024-02-23T01:52:30;94566.16;;;7.22;100.00
4415;BME280;2220;42.670;23.398;2024-02-23T01:54:56;94571.94;;;7.29;100.00
4415;BME280;2220;42.670;23.398;2024-02-23T01:57:23;94549.59;;;7.45;100.00
4415;BME280;2220;42.670;23.398;2024-02-23T01:59:49;94541.53;;;7.41;100.00
4415;BME280;2220;42.670;23.398;2024-02-23T02:02:15;94547.03;;;7.06;100.00
4415;BME280;2220;42.670;23.398;2024-02-23T02:04:40;94550.69;;;7.10;100.00
4415;BME280;2220;42.670;23.398;2024-02-23T02:07:06;94558.03;;;7.35;100.00
4415;BME280;2220;42.670;23.398;2024-02-23T02:09:32;94550.66;;;7.27;100.00
4415;BME280;2220;42.670;23.398;2024-02-23T02:11:57;94539.16;;;7.18;100.00
4415;BME280;2220;42.670;23.398;2024-02-23T02:14:23;94540.03;;;7.07;100.00
4415;BME280;2220;42.670;23.398;2024-02-23T02:16:48;94524.97;;;7.04;100.00
4415;BME280;2220;42.670;23.398;2024-02-23T02:19:14;94533.91;;;6.96;100.00
4415;BME280;2220;42.670;23.398;2024-02-23T02:21:40;94541.31;;;6.87;100.00
4415;BME280;2220;42.670;23.398;2024-02-23T02:24:06;94544.03;;;6.81;100.00
4415;BME280;2220;42.670;23.398;2024-02-23T02:26:31;94541.78;;;6.84;100.00
4415;BME280;2220;42.670;23.398;2024-02-23T02:28:57;94534.88;;;6.73;100.00
4415;BME280;2220;42.670;23.398;2024-02-23T02:31:23;94542.50;;;6.63;100.00
4415;BME280;2220;42.670;23.398;2024-02-23T02:33:48;94533.88;;;6.74;100.00
4415;BME280;2220;42.670;23.398;2024-02-23T02:36:14;94529.78;;;6.78;100.00
4415;BME280;2220;42.670;23.398;2024-02-23T02:38:39;94528.34;;;6.87;100.00
4415;BME280;2220;42.670;23.398;2024-02-23T02:41:05;94540.75;;;6.85;100.00
4415;BME280;2220;42.670;23.398;2024-02-23T02:43:31;94534.66;;;6.91;100.00
4415;BME280;2220;42.670;23.398;2024-02-23T02:45:56;94527.44;;;6.77;100.00
4415;BME280;2220;42.670;23.398;2024-02-23T02:48:22;94527.81;;;6.85;100.00
4415;BME280;2220;42.670;23.398;2024-02-23T02:50:48;94533.41;;;6.77;100.00
4415;BME280;2220;42.670;23.398;2024-02-23T02:53:15;94535.44;;;6.92;100.00
4415;BME280;2220;42.670;23.398;2024-02-23T02:55:41;94540.75;;;7.02;100.00
4415;BME280;2220;42.670;23.398;2024-02-23T02:58:07;94540.66;;;6.97;100.00
4415;BME280;2220;42.670;23.398;2024-02-23T03:00:33;94549.84;;;7.05;100.00
4415;BME280;2220;42.670;23.398;2024-02-23T03:02:59;94539.09;;;6.96;100.00
4415;BME280;2220;42.670;23.398;2024-02-23T03:05:24;94536.88;;;7.05;100.00
4415;BME280;2220;42.670;23.398;2024-02-23T03:07:49;94540.88;;;7.12;100.00
4415;BME280;2220;42.670;23.398;2024-02-23T03:10:15;94536.44;;;6.91;100.00
4415;BME280;2220;42.670;23.398;2024-02-23T03:12:41;94533.38;;;6.94;100.00
4415;BME280;2220;42.670;23.398;2024-02-23T03:15:06;94530.13;;;7.04;100.00
4415;BME280;2220;42.670;23.398;2024-02-23T03:17:32;94532.72;;;7.04;100.00
4415;BME280;2220;42.670;23.398;2024-02-23T03:19:58;94544.09;;;7.19;100.00
4415;BME280;2220;42.670;23.398;2024-02-23T03:22:23;94540.25;;;7.22;100.00
4415;BME280;2220;42.670;23.398;2024-02-23T03:24:49;94547.22;;;7.21;100.00
4415;BME280;2220;42.670;23.398;2024-02-23T03:27:14;94553.13;;;7.17;100.00
4415;BME280;2220;42.670;23.398;2024-02-23T03:29:40;94552.34;;;7.16;100.00
4415;BME280;2220;42.670;23.398;2024-02-23T03:32:06;94541.94;;;7.33;100.00
4415;BME280;2220;42.670;23.398;2024-02-23T03:34:31;94542.88;;;7.27;100.00
4415;BME280;2220;42.670;23.398;2024-02-23T03:36:57;94538.09;;;7.36;100.00
4415;BME280;2220;42.670;23.398;2024-02-23T03:39:24;94545.97;;;7.24;100.00
4415;BME280;2220;42.670;23.398;2024-02-23T03:41:49;94545.72;;;7.25;100.00
4415;BME280;2220;42.670;23.398;2024-02-23T03:44:15;94540.72;;;7.19;100.00
4415;BME280;2220;42.670;23.398;2024-02-23T03:46:40;94549.22;;;7.14;100.00
4415;BME280;2220;42.670;23.398;2024-02-23T03:49:05;94542.88;;;7.27;100.00
4415;BME280;2220;42.670;23.398;2024-02-23T03:51:31;94543.38;;;7.24;100.00
4415;BME280;2220;42.670;23.398;2024-02-23T03:53:59;94551.25;;;7.12;100.00
4415;BME280;2220;42.670;23.398;2024-02-23T03:56:24;94553.22;;;7.22;100.00
4415;BME280;2220;42.670;23.398;2024-02-23T03:58:50;94550.22;;;7.30;100.00
4415;BME280;2220;42.670;23.398;2024-02-23T04:01:15;94555.56;;;7.45;100.00
4415;BME280;2220;42.670;23.398;2024-02-23T04:03:40;94551.97;;;7.46;100.00
4415;BME280;2220;42.670;23.398;2024-02-23T04:06:06;94543.63;;;7.44;100.00
4415;BME280;2220;42.670;23.398;2024-02-23T04:08:32;94553.69;;;7.41;100.00
4415;BME280;2220;42.670;23.398;2024-02-23T04:10:58;94550.91;;;7.25;100.00
4415;BME280;2220;42.670;23.398;2024-02-23T04:13:23;94553.91;;;7.17;100.00
4415;BME280;2220;42.670;23.398;2024-02-23T04:15:49;94548.88;;;7.11;100.00
4415;BME280;2220;42.670;23.398;2024-02-23T04:18:14;94561.28;;;7.25;100.00
4415;BME280;2220;42.670;23.398;2024-02-23T04:20:40;94566.63;;;7.19;100.00
4415;BME280;2220;42.670;23.398;2024-02-23T04:23:06;94559.34;;;7.16;100.00
4415;BME280;2220;42.670;23.398;2024-02-23T04:25:32;94561.13;;;7.15;100.00
4415;BME280;2220;42.670;23.398;2024-02-23T04:27:57;94547.59;;;6.91;100.00
4415;BME280;2220;42.670;23.398;2024-02-23T04:30:22;94546.88;;;6.79;100.00
4415;BME280;2220;42.670;23.398;2024-02-23T04:32:48;94545.84;;;6.80;100.00
4415;BME280;2220;42.670;23.398;2024-02-23T04:35:13;94552.22;;;6.72;100.00
4415;BME280;2220;42.670;23.398;2024-02-23T04:37:39;94563.19;;;6.80;100.00
4415;BME280;2220;42.670;23.398;2024-02-23T04:40:05;94550.09;;;6.69;100.00
4415;BME280;2220;42.670;23.398;2024-02-23T04:42:31;94565.88;;;6.68;100.00
4415;BME280;2220;42.670;23.398;2024-02-23T04:44:56;94551.50;;;6.60;100.00
4415;BME280;2220;42.670;23.398;2024-02-23T04:47:21;94563.66;;;6.43;100.00
4415;BME280;2220;42.670;23.398;2024-02-23T04:49:47;94559.81;;;6.17;100.00
4415;BME280;2220;42.670;23.398;2024-02-23T04:52:13;94550.69;;;6.26;100.00
4415;BME280;2220;42.670;23.398;2024-02-23T04:54:38;94523.53;;;5.83;100.00
4415;BME280;2220;42.670;23.398;2024-02-23T04:57:03;94547.56;;;5.96;100.00
4415;BME280;2220;42.670;23.398;2024-02-23T04:59:29;94550.69;;;5.98;100.00
4415;BME280;2220;42.670;23.398;2024-02-23T05:01:56;94546.84;;;6.29;100.00
4415;BME280;2220;42.670;23.398;2024-02-23T05:04:22;94541.69;;;6.29;100.00
4415;BME280;2220;42.670;23.398;2024-02-23T05:06:47;94545.81;;;6.13;100.00
4415;BME280;2220;42.670;23.398;2024-02-23T05:09:13;94553.47;;;6.08;100.00
4415;BME280;2220;42.670;23.398;2024-02-23T05:11:38;94562.22;;;6.19;100.00
4415;BME280;2220;42.670;23.398;2024-02-23T05:14:04;94567.69;;;6.22;100.00
4415;BME280;2220;42.670;23.398;2024-02-23T05:16:29;94559.63;;;6.19;100.00
4415;BME280;2220;42.670;23.398;2024-02-23T05:18:54;94556.78;;;5.92;100.00
4415;BME280;2220;42.670;23.398;2024-02-23T05:21:20;94555.13;;;5.33;100.00
4415;BME280;2220;42.670;23.398;2024-02-23T05:23:45;94546.44;;;5.51;100.00
4415;BME280;2220;42.670;23.398;2024-02-23T05:26:12;94556.59;;;5.18;100.00
4415;BME280;2220;42.670;23.398;2024-02-23T05:28:37;94556.34;;;5.19;100.00
4415;BME280;2220;42.670;23.398;2024-02-23T05:31:03;94564.78;;;5.15;100.00
4415;BME280;2220;42.670;23.398;2024-02-23T05:33:31;94544.13;;;5.26;100.00
4415;BME280;2220;42.670;23.398;2024-02-23T05:35:56;94545.34;;;5.12;100.00
4415;BME280;2220;42.670;23.398;2024-02-23T05:38:22;94538.41;;;5.24;100.00
4415;BME280;2220;42.670;23.398;2024-02-23T05:40:47;94535.16;;;5.17;100.00
4415;BME280;2220;42.670;23.398;2024-02-23T05:43:13;94532.97;;;5.49;100.00
4415;BME280;2220;42.670;23.398;2024-02-23T05:45:39;94535.28;;;4.99;100.00
4415;BME280;2220;42.670;23.398;2024-02-23T05:48:04;94536.75;;;5.07;100.00
4415;BME280;2220;42.670;23.398;2024-02-23T05:50:30;94549.50;;;5.13;100.00
4415;BME280;2220;42.670;23.398;2024-02-23T05:52:56;94543.34;;;5.14;100.00
4415;BME280;2220;42.670;23.398;2024-02-23T05:55:21;94548.47;;;5.49;100.00
4415;BME280;2220;42.670;23.398;2024-02-23T05:57:47;94549.94;;;5.33;100.00
4415;BME280;2220;42.670;23.398;2024-02-23T06:00:13;94555.19;;;5.50;100.00
4415;BME280;2220;42.670;23.398;2024-02-23T06:02:41;94565.16;;;5.70;100.00
4415;BME280;2220;42.670;23.398;2024-02-23T06:05:06;94572.03;;;6.05;100.00
4415;BME280;2220;42.670;23.398;2024-02-23T06:07:33;94582.28;;;5.88;100.00
4415;BME280;2220;42.670;23.398;2024-02-23T06:10:00;94587.13;;;5.84;100.00
4415;BME280;2220;42.670;23.398;2024-02-23T06:12:26;94591.59;;;6.01;100.00
4415;BME280;2220;42.670;23.398;2024-02-23T06:14:52;94584.91;;;6.16;100.00
4415;BME280;2220;42.670;23.398;2024-02-23T06:17:17;94590.84;;;6.17;100.00
4415;BME280;2220;42.670;23.398;2024-02-23T06:19:43;94600.66;;;6.15;100.00
4415;BME280;2220;42.670;23.398;2024-02-23T06:22:08;94606.00;;;6.25;100.00
4415;BME280;2220;42.670;23.398;2024-02-23T06:24:36;94608.22;;;6.33;100.00
4415;BME280;2220;42.670;23.398;2024-02-23T06:27:01;94611.06;;;6.49;100.00
4415;BME280;2220;42.670;23.398;2024-02-23T06:29:29;94614.03;;;6.69;100.00
4415;BME280;2220;42.670;23.398;2024-02-23T06:31:55;94615.91;;;6.73;100.00
4415;BME280;2220;42.670;23.398;2024-02-23T06:34:20;94621.69;;;6.64;100.00
4415;BME280;2220;42.670;23.398;2024-02-23T06:36:46;94614.19;;;6.79;100.00
4415;BME280;2220;42.670;23.398;2024-02-23T06:39:11;94623.28;;;6.82;100.00
4415;BME280;2220;42.670;23.398;2024-02-23T06:41:38;94624.69;;;6.89;100.00
4415;BME280;2220;42.670;23.398;2024-02-23T06:44:06;94621.03;;;6.85;100.00
4415;BME280;2220;42.670;23.398;2024-02-23T06:46:32;94617.94;;;7.05;100.00
4415;BME280;2220;42.670;23.398;2024-02-23T06:48:57;94620.09;;;6.91;100.00
4415;BME280;2220;42.670;23.398;2024-02-23T06:51:22;94628.69;;;7.14;100.00
4415;BME280;2220;42.670;23.398;2024-02-23T06:53:48;94628.75;;;7.36;100.00
4415;BME280;2220;42.670;23.398;2024-02-23T06:56:13;94633.00;;;7.42;100.00
4415;BME280;2220;42.670;23.398;2024-02-23T06:58:39;94634.91;;;7.46;100.00
4415;BME280;2220;42.670;23.398;2024-02-23T07:01:05;94645.53;;;7.67;100.00
4415;BME280;2220;42.670;23.398;2024-02-23T07:03:36;94644.13;;;7.59;100.00
4415;BME280;2220;42.670;23.398;2024-02-23T07:06:02;94636.88;;;7.39;100.00
4415;BME280;2220;42.670;23.398;2024-02-23T07:08:28;94644.97;;;7.65;100.00
4415;BME280;2220;42.670;23.398;2024-02-23T07:10:53;94655.59;;;7.63;100.00
4415;BME280;2220;42.670;23.398;2024-02-23T07:13:19;94644.91;;;7.60;100.00
4415;BME280;2220;42.670;23.398;2024-02-23T07:15:45;94650.84;;;7.77;100.00
4415;BME280;2220;42.670;23.398;2024-02-23T07:18:10;94645.97;;;7.80;100.00
4415;BME280;2220;42.670;23.398;2024-02-23T07:20:36;94647.81;;;7.85;100.00
4415;BME280;2220;42.670;23.398;2024-02-23T07:23:02;94634.16;;;7.90;100.00
4415;BME280;2220;42.670;23.398;2024-02-23T07:25:27;94639.81;;;8.08;100.00
4415;BME280;2220;42.670;23.398;2024-02-23T07:27:53;94630.03;;;8.16;100.00
4415;BME280;2220;42.670;23.398;2024-02-23T07:30:18;94628.75;;;8.35;100.00
4415;BME280;2220;42.670;23.398;2024-02-23T07:32:44;94627.13;;;8.56;100.00
4415;BME280;2220;42.670;23.398;2024-02-23T07:35:10;94626.44;;;8.97;100.00
4415;BME280;2220;42.670;23.398;2024-02-23T07:37:36;94622.41;;;9.12;100.00
4415;BME280;2220;42.670;23.398;2024-02-23T07:40:02;94626.88;;;9.21;100.00
4415;BME280;2220;42.670;23.398;2024-02-23T07:42:32;94632.75;;;9.39;100.00
4415;BME280;2220;42.670;23.398;2024-02-23T07:44:57;94629.72;;;9.57;100.00
4415;BME280;2220;42.670;23.398;2024-02-23T07:47:23;94639.66;;;9.65;100.00
4415;BME280;2220;42.670;23.398;2024-02-23T07:49:49;94640.22;;;9.77;100.00
4415;BME280;2220;42.670;23.398;2024-02-23T07:52:14;94646.34;;;9.98;100.00
4415;BME280;2220;42.670;23.398;2024-02-23T07:54:40;94642.56;;;10.26;100.00
4415;BME280;2220;42.670;23.398;2024-02-23T07:57:05;94646.25;;;10.35;100.00
4415;BME280;2220;42.670;23.398;2024-02-23T07:59:31;94636.63;;;10.46;100.00
4415;BME280;2220;42.670;23.398;2024-02-23T08:01:56;94645.19;;;10.31;100.00
4415;BME280;2220;42.670;23.398;2024-02-23T08:04:22;94647.09;;;10.51;100.00
4415;BME280;2220;42.670;23.398;2024-02-23T08:06:48;94636.13;;;10.54;100.00
4415;BME280;2220;42.670;23.398;2024-02-23T08:09:14;94646.59;;;10.70;100.00
4415;BME280;2220;42.670;23.398;2024-02-23T08:11:39;94632.25;;;10.62;100.00
4415;BME280;2220;42.670;23.398;2024-02-23T08:14:04;94656.47;;;10.62;100.00
4415;BME280;2220;42.670;23.398;2024-02-23T08:16:30;94654.69;;;10.88;100.00
4415;BME280;2220;42.670;23.398;2024-02-23T08:18:55;94654.16;;;10.81;100.00
4415;BME280;2220;42.670;23.398;2024-02-23T08:21:20;94633.31;;;10.71;100.00
4415;BME280;2220;42.670;23.398;2024-02-23T08:23:46;94633.56;;;10.90;100.00
4415;BME280;2220;42.670;23.398;2024-02-23T08:26:11;94636.19;;;10.80;100.00
4415;BME280;2220;42.670;23.398;2024-02-23T08:28:37;94649.75;;;10.87;100.00
4415;BME280;2220;42.670;23.398;2024-02-23T08:31:02;94650.53;;;11.03;100.00
4415;BME280;2220;42.670;23.398;2024-02-23T08:33:28;94647.41;;;11.11;100.00
4415;BME280;2220;42.670;23.398;2024-02-23T08:35:54;94637.75;;;11.42;100.00
4415;BME280;2220;42.670;23.398;2024-02-23T08:38:19;94642.72;;;11.33;100.00
4415;BME280;2220;42.670;23.398;2024-02-23T08:40:45;94636.44;;;11.44;100.00
4415;BME280;2220;42.670;23.398;2024-02-23T08:43:10;94621.59;;;11.55;100.00
4415;BME280;2220;42.670;23.398;2024-02-23T08:45:36;94632.53;;;11.52;100.00
4415;BME280;2220;42.670;23.398;2024-02-23T08:48:01;94642.91;;;11.77;100.00
4415;BME280;2220;42.670;23.398;2024-02-23T08:50:28;94637.63;;;12.08;100.00
4415;BME280;2220;42.670;23.398;2024-02-23T08:52:54;94648.72;;;12.39;100.00
4415;BME280;2220;42.670;23.398;2024-02-23T08:55:19;94639.53;;;12.52;100.00
4415;BME280;2220;42.670;23.398;2024-02-23T08:57:46;94655.22;;;12.47;100.00
4415;BME280;2220;42.670;23.398;2024-02-23T09:00:12;94648.69;;;12.49;100.00
4415;BME280;2220;42.670;23.398;2024-02-23T09:02:38;94651.00;;;12.51;100.00
4415;BME280;2220;42.670;23.398;2024-02-23T09:05:04;94649.22;;;12.51;100.00
4415;BME280;2220;42.670;23.398;2024-02-23T09:07:30;94642.31;;;12.71;100.00
4415;BME280;2220;42.670;23.398;2024-02-23T09:09:55;94655.38;;;12.66;100.00
4415;BME280;2220;42.670;23.398;2024-02-23T09:12:21;94641.25;;;12.67;100.00
4415;BME280;2220;42.670;23.398;2024-02-23T09:14:47;94645.91;;;12.80;100.00
4415;BME280;2220;42.670;23.398;2024-02-23T09:17:13;94655.13;;;13.06;100.00
4415;BME280;2220;42.670;23.398;2024-02-23T09:19:38;94652.47;;;13.16;100.00
4415;BME280;2220;42.670;23.398;2024-02-23T09:22:04;94638.84;;;13.20;100.00
4415;BME280;2220;42.670;23.398;2024-02-23T09:24:30;94653.28;;;13.46;100.00
4415;BME280;2220;42.670;23.398;2024-02-23T09:26:55;94648.81;;;13.76;100.00
4415;BME280;2220;42.670;23.398;2024-02-23T09:29:21;94648.38;;;13.92;100.00
4415;BME280;2220;42.670;23.398;2024-02-23T09:31:47;94650.50;;;13.90;100.00
4415;BME280;2220;42.670;23.398;2024-02-23T09:34:13;94654.13;;;13.94;100.00
4415;BME280;2220;42.670;23.398;2024-02-23T09:36:39;94649.56;;;14.05;100.00
4415;BME280;2220;42.670;23.398;2024-02-23T09:39:04;94650.06;;;14.07;100.00
4415;BME280;2220;42.670;23.398;2024-02-23T09:41:30;94650.63;;;14.04;100.00
4415;BME280;2220;42.670;23.398;2024-02-23T09:43:59;94651.94;;;14.02;100.00
4415;BME280;2220;42.670;23.398;2024-02-23T09:46:26;94650.72;;;13.94;100.00
4415;BME280;2220;42.670;23.398;2024-02-23T09:48:51;94644.25;;;14.10;100.00
4415;BME280;2220;42.670;23.398;2024-02-23T09:51:17;94652.97;;;14.30;100.00
4415;BME280;2220;42.670;23.398;2024-02-23T09:53:43;94654.28;;;14.51;100.00
4415;BME280;2220;42.670;23.398;2024-02-23T09:56:10;94641.13;;;14.56;100.00
4415;BME280;2220;42.670;23.398;2024-02-23T09:58:39;94630.72;;;14.70;100.00
4415;BME280;2220;42.670;23.398;2024-02-23T10:01:06;94627.25;;;14.74;100.00
4415;BME280;2220;42.670;23.398;2024-02-23T10:03:32;94623.56;;;14.75;100.00
4415;BME280;2220;42.670;23.398;2024-02-23T10:05:58;94633.69;;;14.82;100.00
4415;BME280;2220;42.670;23.398;2024-02-23T10:08:23;94627.41;;;15.16;100.00
4415;BME280;2220;42.670;23.398;2024-02-23T10:10:49;94621.69;;;15.46;100.00
4415;BME280;2220;42.670;23.398;2024-02-23T10:13:19;94628.81;;;15.59;100.00
4415;BME280;2220;42.670;23.398;2024-02-23T10:15:52;94625.38;;;15.91;100.00
4415;BME280;2220;42.670;23.398;2024-02-23T10:18:18;94625.75;;;16.26;100.00
4415;BME280;2220;42.670;23.398;2024-02-23T10:20:43;94613.09;;;16.28;100.00
4415;BME280;2220;42.670;23.398;2024-02-23T10:23:09;94616.78;;;16.41;100.00
4415;BME280;2220;42.670;23.398;2024-02-23T10:25:35;94619.25;;;16.87;100.00
4415;BME280;2220;42.670;23.398;2024-02-23T10:28:02;94611.53;;;16.41;100.00
4415;BME280;2220;42.670;23.398;2024-02-23T10:30:27;94601.66;;;16.60;100.00
4415;BME280;2220;42.670;23.398;2024-02-23T10:32:55;94603.00;;;16.85;100.00
4415;BME280;2220;42.670;23.398;2024-02-23T10:35:21;94612.66;;;16.12;100.00
4415;BME280;2220;42.670;23.398;2024-02-23T10:37:51;94602.00;;;16.45;100.00
4415;BME280;2220;42.670;23.398;2024-02-23T10:40:18;94597.19;;;16.61;100.00
4415;BME280;2220;42.670;23.398;2024-02-23T10:42:45;94590.25;;;16.78;100.00
4415;BME280;2220;42.670;23.398;2024-02-23T10:45:17;94589.41;;;16.69;100.00
4415;BME280;2220;42.670;23.398;2024-02-23T10:47:43;94586.13;;;17.09;100.00
4415;BME280;2220;42.670;23.398;2024-02-23T10:50:09;94572.84;;;16.69;100.00
4415;BME280;2220;42.670;23.398;2024-02-23T10:52:35;94573.03;;;16.59;100.00
4415;BME280;2220;42.670;23.398;2024-02-23T10:55:01;94576.09;;;16.88;100.00
4415;BME280;2220;42.670;23.398;2024-02-23T10:57:32;94574.56;;;16.60;100.00
4415;BME280;2220;42.670;23.398;2024-02-23T10:59:59;94573.84;;;16.82;97.09
4415;BME280;2220;42.670;23.398;2024-02-23T11:02:27;94570.09;;;16.74;94.75
4415;BME280;2220;42.670;23.398;2024-02-23T11:04:55;94561.31;;;16.65;92.78
4415;BME280;2220;42.670;23.398;2024-02-23T11:07:22;94554.03;;;16.26;93.48
4415;BME280;2220;42.670;23.398;2024-02-23T11:10:08;94549.84;;;16.11;94.27
4415;BME280;2220;42.670;23.398;2024-02-23T11:12:35;94546.03;;;16.31;93.13
4415;BME280;2220;42.670;23.398;2024-02-23T11:15:01;94550.56;;;16.53;92.73
4415;BME280;2220;42.670;23.398;2024-02-23T11:17:27;94552.72;;;16.87;90.70
4415;BME280;2220;42.670;23.398;2024-02-23T11:19:55;94544.78;;;16.64;88.43
4415;BME280;2220;42.670;23.398;2024-02-23T11:22:27;94544.19;;;16.31;91.82
4415;BME280;2220;42.670;23.398;2024-02-23T11:24:59;94543.22;;;17.08;90.33
4415;BME280;2220;42.670;23.398;2024-02-23T11:27:30;94539.75;;;17.21;88.55
4415;BME280;2220;42.670;23.398;2024-02-23T11:30:01;94535.34;;;17.08;86.71
4415;BME280;2220;42.670;23.398;2024-02-23T11:32:46;94524.78;;;17.30;88.52
4415;BME280;2220;42.670;23.398;2024-02-23T11:35:13;94526.44;;;17.18;89.70
4415;BME280;2220;42.670;23.398;2024-02-23T11:40:12;94525.06;;;17.20;88.66
4415;BME280;2220;42.670;23.398;2024-02-23T11:42:38;94530.09;;;17.70;89.27
4415;BME280;2220;42.670;23.398;2024-02-23T11:45:04;94531.41;;;17.90;86.75
4415;BME280;2220;42.670;23.398;2024-02-23T11:47:31;94521.53;;;18.13;85.64
4415;BME280;2220;42.670;23.398;2024-02-23T11:49:56;94530.53;;;18.21;84.65
4415;BME280;2220;42.670;23.398;2024-02-23T11:52:21;94523.22;;;18.00;82.14
4415;BME280;2220;42.670;23.398;2024-02-23T11:54:47;94520.59;;;18.00;83.37
4415;BME280;2220;42.670;23.398;2024-02-23T11:57:12;94518.00;;;18.43;80.77
4415;BME280;2220;42.670;23.398;2024-02-23T11:59:40;94512.56;;;18.57;77.46
4415;BME280;2220;42.670;23.398;2024-02-23T12:02:06;94512.41;;;18.36;77.72
4415;BME280;2220;42.670;23.398;2024-02-23T12:04:32;94503.56;;;18.41;78.84
4415;BME280;2220;42.670;23.398;2024-02-23T12:06:58;94505.88;;;18.25;77.26
4415;BME280;2220;42.670;23.398;2024-02-23T12:09:24;94501.84;;;18.10;76.70
4415;BME280;2220;42.670;23.398;2024-02-23T12:11:50;94509.75;;;17.62;77.76
4415;BME280;2220;42.670;23.398;2024-02-23T12:14:15;94497.75;;;17.87;76.96
4415;BME280;2220;42.670;23.398;2024-02-23T12:16:41;94502.78;;;18.49;75.01
4415;BME280;2220;42.670;23.398;2024-02-23T12:19:08;94503.75;;;18.53;73.57
4415;BME280;2220;42.670;23.398;2024-02-23T12:21:34;94496.13;;;18.43;72.77
4415;BME280;2220;42.670;23.398;2024-02-23T12:23:59;94484.78;;;17.99;73.72
4415;BME280;2220;42.670;23.398;2024-02-23T12:26:25;94485.75;;;18.38;74.81
4415;BME280;2220;42.670;23.398;2024-02-23T12:28:50;94488.19;;;18.17;74.25
4415;BME280;2220;42.670;23.398;2024-02-23T12:31:16;94475.97;;;17.64;74.76
4415;BME280;2220;42.670;23.398;2024-02-23T12:33:48;94480.94;;;18.31;70.41
4415;BME280;2220;42.670;23.398;2024-02-23T12:36:14;94479.22;;;18.44;70.35
4415;BME280;2220;42.670;23.398;2024-02-23T12:38:40;94478.91;;;18.28;70.64
4415;BME280;2220;42.670;23.398;2024-02-23T12:41:05;94471.31;;;18.27;71.62
4415;BME280;2220;42.670;23.398;2024-02-23T12:43:31;94474.88;;;18.31;70.79
4415;BME280;2220;42.670;23.398;2024-02-23T12:45:57;94462.91;;;18.59;70.60
4415;BME280;2220;42.670;23.398;2024-02-23T12:48:22;94464.78;;;18.76;70.41
4415;BME280;2220;42.670;23.398;2024-02-23T12:50:49;94460.47;;;18.71;71.00
4415;BME280;2220;42.670;23.398;2024-02-23T12:53:34;94453.31;;;18.46;71.00
4415;BME280;2220;42.670;23.398;2024-02-23T12:56:17;94456.56;;;18.17;70.54
4415;BME280;2220;42.670;23.398;2024-02-23T12:58:44;94457.22;;;18.23;70.29
4415;BME280;2220;42.670;23.398;2024-02-23T13:01:10;94458.56;;;18.03;70.90
4415;BME280;2220;42.670;23.398;2024-02-23T13:03:37;94449.28;;;18.40;70.70